createdAt,value
2022-12-17T08:21:15.746Z,-2.80
2022-12-17T08:24:01.235Z,-2.80
2022-12-17T08:26:48.367Z,-2.80
2022-12-17T08:29:33.913Z,-2.70
2022-12-17T08:32:19.520Z,-2.70
2022-12-17T08:35:05.098Z,-2.60
2022-12-17T08:37:51.892Z,-2.60
2022-12-17T08:40:37.417Z,-2.50
2022-12-17T08:43:23.039Z,-2.50
2022-12-17T08:46:10.086Z,-2.40
2022-12-17T08:48:56.523Z,-2.40
2022-12-17T08:51:42.550Z,-2.40
2022-12-17T08:54:29.337Z,-2.30
2022-12-17T08:57:27.133Z,-2.30
2022-12-17T09:00:16.791Z,-2.20
2022-12-17T09:03:02.346Z,-2.10
2022-12-17T09:05:47.695Z,-2.00
2022-12-17T09:08:33.294Z,-1.90
2022-12-17T09:11:20.374Z,-1.80
2022-12-17T09:14:06.030Z,-1.80
2022-12-17T09:16:51.761Z,-1.70
2022-12-17T09:19:37.071Z,-1.70
2022-12-17T09:22:22.608Z,-1.70
2022-12-17T09:25:08.143Z,-1.70
2022-12-17T09:27:54.778Z,-1.60
2022-12-17T09:30:40.260Z,-1.50
2022-12-17T09:33:25.930Z,-1.50
2022-12-17T09:36:11.517Z,-1.50
2022-12-17T09:38:56.979Z,-1.40
2022-12-17T09:41:46.397Z,-1.30
2022-12-17T09:44:48.417Z,-1.20
2022-12-17T09:47:44.302Z,-1.00
2022-12-17T09:50:33.284Z,-0.90
2022-12-17T09:53:20.667Z,-0.80
2022-12-17T09:56:20.306Z,-0.70
2022-12-17T09:59:05.908Z,-0.50
2022-12-17T10:01:54.200Z,-0.30
2022-12-17T10:04:48.674Z,-0.20
2022-12-17T10:07:38.118Z,0.00
2022-12-17T10:10:35.814Z,0.20
2022-12-17T10:13:26.577Z,0.50
2022-12-17T10:16:12.130Z,1.00
2022-12-17T10:18:58.989Z,1.50
2022-12-17T10:21:45.333Z,2.00
2022-12-17T10:24:31.118Z,2.40
2022-12-17T10:27:16.582Z,2.70
2022-12-17T10:30:03.616Z,2.90
2022-12-17T10:32:49.151Z,2.90
2022-12-17T10:35:39.767Z,3.00
2022-12-17T10:38:32.404Z,2.90
2022-12-17T10:41:20.996Z,3.10
2022-12-17T10:44:06.604Z,3.30
2022-12-17T10:46:53.066Z,3.50
2022-12-17T10:49:41.373Z,3.60
2022-12-17T10:52:42.660Z,3.60
2022-12-17T10:55:40.623Z,3.60
2022-12-17T10:58:32.613Z,3.50
2022-12-17T11:01:19.199Z,3.50
2022-12-17T11:04:10.644Z,3.40
2022-12-17T11:06:59.513Z,3.60
2022-12-17T11:10:03.668Z,3.80
2022-12-17T11:12:56.772Z,4.20
2022-12-17T11:15:48.413Z,4.40
2022-12-17T11:18:38.727Z,4.80
2022-12-17T11:21:29.319Z,4.90
2022-12-17T11:24:22.191Z,5.20
2022-12-17T11:27:12.272Z,5.40
2022-12-17T11:29:57.872Z,5.60
2022-12-17T11:33:12.993Z,5.90
2022-12-17T11:36:08.596Z,6.10
2022-12-17T11:38:57.484Z,6.20
2022-12-17T11:41:54.526Z,6.20
2022-12-17T11:44:55.423Z,6.30
2022-12-17T11:47:54.881Z,6.00
2022-12-17T11:50:47.066Z,5.90
2022-12-17T11:53:49.562Z,5.80
2022-12-17T11:56:42.013Z,5.90
2022-12-17T11:59:39.667Z,5.90
2022-12-17T12:02:39.269Z,6.00
2022-12-17T12:05:38.821Z,6.20
2022-12-17T12:08:35.625Z,6.30
2022-12-17T12:11:31.911Z,6.20
2022-12-17T12:14:25.505Z,6.10
2022-12-17T12:17:17.552Z,6.00
2022-12-17T12:20:10.852Z,6.00
2022-12-17T12:23:02.064Z,6.20
2022-12-17T12:25:53.021Z,6.20
2022-12-17T12:28:46.706Z,6.20
2022-12-17T12:31:55.075Z,5.90
2022-12-17T12:34:44.385Z,6.00
2022-12-17T12:37:35.244Z,6.00
2022-12-17T12:40:30.199Z,6.30
2022-12-17T12:43:33.184Z,6.50
2022-12-17T12:46:23.605Z,6.50
2022-12-17T12:49:17.637Z,6.40
2022-12-17T12:52:03.261Z,6.40
2022-12-17T12:55:08.577Z,6.20
2022-12-17T12:57:56.057Z,6.30
2022-12-17T13:00:44.314Z,6.60
2022-12-17T13:03:47.941Z,6.60
2022-12-17T13:06:39.923Z,6.70
2022-12-17T13:09:30.735Z,6.40
2022-12-17T13:12:29.840Z,6.20
2022-12-17T13:15:14.854Z,5.80
2022-12-17T13:17:46.970Z,5.40
2022-12-17T13:20:30.400Z,5.30
2022-12-17T13:23:27.664Z,5.30
2022-12-17T13:26:23.685Z,5.20
2022-12-17T13:29:12.673Z,5.30
2022-12-17T13:31:56.089Z,5.30
2022-12-17T13:34:32.445Z,5.40
2022-12-17T13:37:08.412Z,5.60
2022-12-17T13:39:44.535Z,5.70
2022-12-17T13:42:20.190Z,5.80
2022-12-17T13:44:49.932Z,5.70
2022-12-17T13:47:23.838Z,5.60
2022-12-17T13:50:24.435Z,5.50
2022-12-17T13:52:41.151Z,5.40
2022-12-17T13:55:11.265Z,5.20
2022-12-17T13:57:39.644Z,4.80
2022-12-17T14:00:21.409Z,4.70
2022-12-17T14:02:49.688Z,4.50
2022-12-17T14:05:27.126Z,4.30
2022-12-17T14:07:55.476Z,4.10
2022-12-17T14:10:23.563Z,3.90
2022-12-17T14:12:51.431Z,4.00
2022-12-17T14:15:26.084Z,4.00
2022-12-17T14:17:56.450Z,3.70
2022-12-17T14:20:26.967Z,3.60
2022-12-17T14:22:57.856Z,3.50
2022-12-17T14:25:28.310Z,3.30
2022-12-17T14:27:58.748Z,3.10
2022-12-17T14:30:46.207Z,3.10
2022-12-17T14:33:29.469Z,3.10
2022-12-17T14:36:02.066Z,3.00
2022-12-17T14:38:48.476Z,3.00
2022-12-17T14:41:34.478Z,3.00
2022-12-17T14:44:04.147Z,2.80
2022-12-17T14:46:35.676Z,2.70
2022-12-17T14:49:05.930Z,2.40
2022-12-17T14:51:37.468Z,2.30
2022-12-17T14:54:29.088Z,2.10
2022-12-17T14:56:58.917Z,1.90
2022-12-17T14:59:31.908Z,1.80
2022-12-17T15:02:03.836Z,1.70
